sensor_id;sensor_type;location;lat;lon;timestamp;P1;durP1;ratioP1;P2;durP2;ratioP2
24681;SDS011;12802;53.390;-2.328;2023-02-17T00:01:01;0.63;;;0.45;;
24681;SDS011;12802;53.390;-2.328;2023-02-17T00:03:36;0.43;;;0.28;;
24681;SDS011;12802;53.390;-2.328;2023-02-17T00:06:05;1.55;;;0.57;;
24681;SDS011;12802;53.390;-2.328;2023-02-17T00:08:33;0.60;;;0.50;;
24681;SDS011;12802;53.390;-2.328;2023-02-17T00:10:58;1.02;;;0.50;;
24681;SDS011;12802;53.390;-2.328;2023-02-17T00:13:25;1.00;;;0.55;;
24681;SDS011;12802;53.390;-2.328;2023-02-17T00:15:51;0.98;;;0.40;;
24681;SDS011;12802;53.390;-2.328;2023-02-17T00:18:17;1.35;;;0.60;;
24681;SDS011;12802;53.390;-2.328;2023-02-17T00:20:42;1.85;;;0.70;;
24681;SDS011;12802;53.390;-2.328;2023-02-17T00:23:08;0.98;;;0.50;;
24681;SDS011;12802;53.390;-2.328;2023-02-17T00:25:35;1.13;;;0.57;;
24681;SDS011;12802;53.390;-2.328;2023-02-17T00:28:02;1.42;;;0.77;;
24681;SDS011;12802;53.390;-2.328;2023-02-17T00:30:27;1.60;;;1.00;;
24681;SDS011;12802;53.390;-2.328;2023-02-17T00:32:53;2.63;;;1.10;;
24681;SDS011;12802;53.390;-2.328;2023-02-17T00:35:19;1.90;;;0.88;;
24681;SDS011;12802;53.390;-2.328;2023-02-17T00:37:45;3.05;;;0.93;;
24681;SDS011;12802;53.390;-2.328;2023-02-17T00:40:11;1.20;;;0.70;;
24681;SDS011;12802;53.390;-2.328;2023-02-17T00:42:37;1.98;;;1.00;;
24681;SDS011;12802;53.390;-2.328;2023-02-17T00:45:03;2.67;;;0.90;;
24681;SDS011;12802;53.390;-2.328;2023-02-17T00:47:30;1.38;;;0.77;;
24681;SDS011;12802;53.390;-2.328;2023-02-17T00:49:56;2.30;;;0.70;;
24681;SDS011;12802;53.390;-2.328;2023-02-17T00:52:24;1.52;;;0.60;;
24681;SDS011;12802;53.390;-2.328;2023-02-17T00:54:50;2.00;;;0.80;;
24681;SDS011;12802;53.390;-2.328;2023-02-17T00:57:16;5.53;;;0.80;;
24681;SDS011;12802;53.390;-2.328;2023-02-17T00:59:41;5.32;;;1.13;;
24681;SDS011;12802;53.390;-2.328;2023-02-17T01:02:07;4.35;;;1.00;;
24681;SDS011;12802;53.390;-2.328;2023-02-17T01:04:34;2.65;;;1.15;;
24681;SDS011;12802;53.390;-2.328;2023-02-17T01:07:00;2.25;;;0.70;;
24681;SDS011;12802;53.390;-2.328;2023-02-17T01:09:26;1.05;;;0.68;;
24681;SDS011;12802;53.390;-2.328;2023-02-17T01:11:52;1.48;;;0.68;;
24681;SDS011;12802;53.390;-2.328;2023-02-17T01:14:17;2.42;;;0.80;;
24681;SDS011;12802;53.390;-2.328;2023-02-17T01:16:44;1.98;;;0.70;;
24681;SDS011;12802;53.390;-2.328;2023-02-17T01:19:12;1.13;;;0.70;;
24681;SDS011;12802;53.390;-2.328;2023-02-17T01:21:40;0.63;;;0.32;;
24681;SDS011;12802;53.390;-2.328;2023-02-17T01:24:10;1.08;;;0.57;;
24681;SDS011;12802;53.390;-2.328;2023-02-17T01:26:36;2.80;;;1.08;;
24681;SDS011;12802;53.390;-2.328;2023-02-17T01:29:03;0.88;;;0.77;;
24681;SDS011;12802;53.390;-2.328;2023-02-17T01:31:30;4.57;;;0.80;;
24681;SDS011;12802;53.390;-2.328;2023-02-17T01:33:56;1.10;;;0.77;;
24681;SDS011;12802;53.390;-2.328;2023-02-17T01:36:23;3.53;;;0.93;;
24681;SDS011;12802;53.390;-2.328;2023-02-17T01:38:49;1.13;;;0.77;;
24681;SDS011;12802;53.390;-2.328;2023-02-17T01:41:17;1.38;;;0.85;;
24681;SDS011;12802;53.390;-2.328;2023-02-17T01:46:41;2.53;;;1.02;;
24681;SDS011;12802;53.390;-2.328;2023-02-17T01:49:14;1.50;;;0.90;;
24681;SDS011;12802;53.390;-2.328;2023-02-17T01:57:10;1.95;;;0.80;;
24681;SDS011;12802;53.390;-2.328;2023-02-17T02:02:05;1.42;;;0.90;;
24681;SDS011;12802;53.390;-2.328;2023-02-17T02:04:32;1.25;;;0.63;;
24681;SDS011;12802;53.390;-2.328;2023-02-17T02:07:02;4.18;;;0.93;;
24681;SDS011;12802;53.390;-2.328;2023-02-17T02:09:31;4.38;;;1.20;;
24681;SDS011;12802;53.390;-2.328;2023-02-17T02:12:18;6.53;;;1.30;;
24681;SDS011;12802;53.390;-2.328;2023-02-17T02:14:45;2.05;;;1.02;;
24681;SDS011;12802;53.390;-2.328;2023-02-17T02:22:55;3.13;;;0.70;;
24681;SDS011;12802;53.390;-2.328;2023-02-17T02:33:46;2.35;;;0.93;;
24681;SDS011;12802;53.390;-2.328;2023-02-17T02:38:51;0.93;;;0.57;;
24681;SDS011;12802;53.390;-2.328;2023-02-17T02:43:58;1.15;;;0.57;;
24681;SDS011;12802;53.390;-2.328;2023-02-17T02:46:26;0.95;;;0.55;;
24681;SDS011;12802;53.390;-2.328;2023-02-17T02:48:52;3.72;;;0.93;;
24681;SDS011;12802;53.390;-2.328;2023-02-17T02:59:41;1.40;;;0.47;;
24681;SDS011;12802;53.390;-2.328;2023-02-17T03:02:45;3.58;;;0.75;;
24681;SDS011;12802;53.390;-2.328;2023-02-17T03:08:19;4.45;;;0.95;;
24681;SDS011;12802;53.390;-2.328;2023-02-17T03:11:02;8.40;;;1.13;;
24681;SDS011;12802;53.390;-2.328;2023-02-17T03:13:33;5.03;;;1.02;;
24681;SDS011;12802;53.390;-2.328;2023-02-17T03:16:05;2.97;;;1.20;;
24681;SDS011;12802;53.390;-2.328;2023-02-17T03:18:32;4.15;;;0.70;;
24681;SDS011;12802;53.390;-2.328;2023-02-17T03:21:05;4.95;;;0.98;;
24681;SDS011;12802;53.390;-2.328;2023-02-17T03:23:40;2.83;;;1.13;;
24681;SDS011;12802;53.390;-2.328;2023-02-17T03:26:05;4.75;;;1.00;;
24681;SDS011;12802;53.390;-2.328;2023-02-17T03:28:31;5.68;;;0.93;;
24681;SDS011;12802;53.390;-2.328;2023-02-17T03:30:57;5.80;;;1.00;;
24681;SDS011;12802;53.390;-2.328;2023-02-17T03:33:22;8.38;;;1.40;;
24681;SDS011;12802;53.390;-2.328;2023-02-17T03:35:50;6.78;;;1.23;;
24681;SDS011;12802;53.390;-2.328;2023-02-17T03:38:16;5.00;;;1.42;;
24681;SDS011;12802;53.390;-2.328;2023-02-17T03:40:42;10.63;;;1.35;;
24681;SDS011;12802;53.390;-2.328;2023-02-17T03:43:08;2.90;;;1.42;;
24681;SDS011;12802;53.390;-2.328;2023-02-17T03:45:36;3.75;;;1.80;;
24681;SDS011;12802;53.390;-2.328;2023-02-17T03:48:02;3.37;;;0.83;;
24681;SDS011;12802;53.390;-2.328;2023-02-17T03:50:29;5.03;;;1.25;;
24681;SDS011;12802;53.390;-2.328;2023-02-17T03:52:55;3.22;;;1.08;;
24681;SDS011;12802;53.390;-2.328;2023-02-17T03:55:20;2.22;;;1.20;;
24681;SDS011;12802;53.390;-2.328;2023-02-17T03:57:46;5.30;;;1.50;;
24681;SDS011;12802;53.390;-2.328;2023-02-17T04:00:12;3.78;;;1.00;;
24681;SDS011;12802;53.390;-2.328;2023-02-17T04:02:39;3.55;;;1.73;;
24681;SDS011;12802;53.390;-2.328;2023-02-17T04:05:04;4.93;;;1.13;;
24681;SDS011;12802;53.390;-2.328;2023-02-17T04:07:30;4.28;;;1.15;;
24681;SDS011;12802;53.390;-2.328;2023-02-17T04:09:56;5.57;;;1.30;;
24681;SDS011;12802;53.390;-2.328;2023-02-17T04:12:22;4.72;;;1.50;;
24681;SDS011;12802;53.390;-2.328;2023-02-17T04:14:47;5.72;;;1.33;;
24681;SDS011;12802;53.390;-2.328;2023-02-17T04:17:13;1.83;;;1.02;;
24681;SDS011;12802;53.390;-2.328;2023-02-17T04:19:39;1.98;;;0.82;;
24681;SDS011;12802;53.390;-2.328;2023-02-17T04:22:05;10.48;;;1.60;;
24681;SDS011;12802;53.390;-2.328;2023-02-17T04:24:33;3.78;;;0.90;;
24681;SDS011;12802;53.390;-2.328;2023-02-17T04:27:00;6.65;;;1.63;;
24681;SDS011;12802;53.390;-2.328;2023-02-17T04:29:27;2.03;;;0.95;;
24681;SDS011;12802;53.390;-2.328;2023-02-17T04:31:53;7.95;;;1.63;;
24681;SDS011;12802;53.390;-2.328;2023-02-17T04:34:18;5.45;;;1.20;;
24681;SDS011;12802;53.390;-2.328;2023-02-17T04:36:44;2.53;;;0.82;;
24681;SDS011;12802;53.390;-2.328;2023-02-17T04:39:10;4.65;;;1.52;;
24681;SDS011;12802;53.390;-2.328;2023-02-17T04:41:36;3.05;;;0.88;;
24681;SDS011;12802;53.390;-2.328;2023-02-17T04:44:02;5.68;;;0.93;;
24681;SDS011;12802;53.390;-2.328;2023-02-17T04:46:27;2.63;;;1.13;;
24681;SDS011;12802;53.390;-2.328;2023-02-17T04:48:53;1.88;;;0.98;;
24681;SDS011;12802;53.390;-2.328;2023-02-17T04:51:19;4.15;;;1.20;;
24681;SDS011;12802;53.390;-2.328;2023-02-17T04:53:45;5.18;;;1.20;;
24681;SDS011;12802;53.390;-2.328;2023-02-17T04:56:10;5.50;;;1.42;;
24681;SDS011;12802;53.390;-2.328;2023-02-17T04:58:36;5.97;;;1.67;;
24681;SDS011;12802;53.390;-2.328;2023-02-17T05:01:02;3.60;;;1.13;;
24681;SDS011;12802;53.390;-2.328;2023-02-17T05:03:28;4.35;;;1.30;;
24681;SDS011;12802;53.390;-2.328;2023-02-17T05:05:54;5.10;;;1.23;;
24681;SDS011;12802;53.390;-2.328;2023-02-17T05:08:19;2.42;;;1.05;;
24681;SDS011;12802;53.390;-2.328;2023-02-17T05:10:45;3.58;;;0.98;;
24681;SDS011;12802;53.390;-2.328;2023-02-17T05:13:11;3.45;;;1.23;;
24681;SDS011;12802;53.390;-2.328;2023-02-17T05:15:36;1.55;;;0.82;;
24681;SDS011;12802;53.390;-2.328;2023-02-17T05:18:02;6.53;;;1.00;;
24681;SDS011;12802;53.390;-2.328;2023-02-17T05:20:28;3.08;;;0.70;;
24681;SDS011;12802;53.390;-2.328;2023-02-17T05:22:54;1.40;;;0.52;;
24681;SDS011;12802;53.390;-2.328;2023-02-17T05:25:20;1.63;;;0.73;;
24681;SDS011;12802;53.390;-2.328;2023-02-17T05:27:46;1.77;;;0.80;;
24681;SDS011;12802;53.390;-2.328;2023-02-17T05:30:11;2.20;;;0.65;;
24681;SDS011;12802;53.390;-2.328;2023-02-17T05:32:37;2.22;;;1.08;;
24681;SDS011;12802;53.390;-2.328;2023-02-17T05:35:03;2.67;;;0.75;;
24681;SDS011;12802;53.390;-2.328;2023-02-17T05:37:29;3.20;;;0.68;;
24681;SDS011;12802;53.390;-2.328;2023-02-17T05:39:55;3.20;;;0.80;;
24681;SDS011;12802;53.390;-2.328;2023-02-17T05:42:21;1.00;;;0.57;;
24681;SDS011;12802;53.390;-2.328;2023-02-17T05:44:47;2.45;;;1.02;;
24681;SDS011;12802;53.390;-2.328;2023-02-17T05:47:12;9.25;;;1.00;;
24681;SDS011;12802;53.390;-2.328;2023-02-17T05:49:38;4.45;;;1.00;;
24681;SDS011;12802;53.390;-2.328;2023-02-17T05:52:04;1.95;;;0.55;;
24681;SDS011;12802;53.390;-2.328;2023-02-17T05:54:29;1.70;;;0.85;;
24681;SDS011;12802;53.390;-2.328;2023-02-17T05:56:55;1.63;;;1.00;;
24681;SDS011;12802;53.390;-2.328;2023-02-17T05:59:21;1.08;;;0.40;;
24681;SDS011;12802;53.390;-2.328;2023-02-17T06:01:47;2.78;;;0.50;;
24681;SDS011;12802;53.390;-2.328;2023-02-17T06:04:13;2.47;;;0.80;;
24681;SDS011;12802;53.390;-2.328;2023-02-17T06:06:39;1.90;;;0.50;;
24681;SDS011;12802;53.390;-2.328;2023-02-17T06:09:04;2.47;;;0.70;;
24681;SDS011;12802;53.390;-2.328;2023-02-17T06:11:30;1.92;;;0.47;;
24681;SDS011;12802;53.390;-2.328;2023-02-17T06:13:56;1.92;;;0.77;;
24681;SDS011;12802;53.390;-2.328;2023-02-17T06:16:22;0.75;;;0.28;;
24681;SDS011;12802;53.390;-2.328;2023-02-17T06:18:48;0.50;;;0.30;;
24681;SDS011;12802;53.390;-2.328;2023-02-17T06:21:13;4.03;;;0.70;;
24681;SDS011;12802;53.390;-2.328;2023-02-17T06:23:39;2.30;;;1.02;;
24681;SDS011;12802;53.390;-2.328;2023-02-17T06:26:05;3.67;;;0.55;;
24681;SDS011;12802;53.390;-2.328;2023-02-17T06:28:30;2.13;;;0.50;;
24681;SDS011;12802;53.390;-2.328;2023-02-17T06:30:56;3.70;;;0.82;;
24681;SDS011;12802;53.390;-2.328;2023-02-17T06:33:22;2.67;;;0.50;;
24681;SDS011;12802;53.390;-2.328;2023-02-17T06:35:50;3.15;;;0.60;;
24681;SDS011;12802;53.390;-2.328;2023-02-17T06:38:16;4.82;;;0.80;;
24681;SDS011;12802;53.390;-2.328;2023-02-17T06:40:43;0.50;;;0.20;;
24681;SDS011;12802;53.390;-2.328;2023-02-17T06:43:09;1.25;;;0.60;;
24681;SDS011;12802;53.390;-2.328;2023-02-17T06:45:34;2.20;;;0.73;;
24681;SDS011;12802;53.390;-2.328;2023-02-17T06:48:00;1.17;;;0.30;;
24681;SDS011;12802;53.390;-2.328;2023-02-17T06:50:26;2.05;;;0.50;;
24681;SDS011;12802;53.390;-2.328;2023-02-17T06:52:52;6.85;;;0.63;;
24681;SDS011;12802;53.390;-2.328;2023-02-17T06:55:18;3.88;;;0.60;;
24681;SDS011;12802;53.390;-2.328;2023-02-17T06:57:43;0.82;;;0.45;;
24681;SDS011;12802;53.390;-2.328;2023-02-17T07:00:09;5.35;;;0.95;;
24681;SDS011;12802;53.390;-2.328;2023-02-17T07:02:38;0.77;;;0.32;;
24681;SDS011;12802;53.390;-2.328;2023-02-17T07:05:04;2.00;;;0.60;;
24681;SDS011;12802;53.390;-2.328;2023-02-17T07:07:31;2.35;;;0.55;;
24681;SDS011;12802;53.390;-2.328;2023-02-17T07:09:56;5.32;;;0.90;;
24681;SDS011;12802;53.390;-2.328;2023-02-17T07:12:22;1.95;;;0.40;;
24681;SDS011;12802;53.390;-2.328;2023-02-17T07:14:48;1.90;;;0.73;;
24681;SDS011;12802;53.390;-2.328;2023-02-17T07:17:13;2.33;;;0.55;;
24681;SDS011;12802;53.390;-2.328;2023-02-17T07:19:39;8.43;;;0.93;;
24681;SDS011;12802;53.390;-2.328;2023-02-17T07:22:05;2.15;;;1.17;;
24681;SDS011;12802;53.390;-2.328;2023-02-17T07:24:31;1.48;;;0.55;;
24681;SDS011;12802;53.390;-2.328;2023-02-17T07:26:58;1.10;;;0.57;;
24681;SDS011;12802;53.390;-2.328;2023-02-17T07:29:25;1.65;;;0.75;;
24681;SDS011;12802;53.390;-2.328;2023-02-17T07:31:51;10.60;;;1.25;;
24681;SDS011;12802;53.390;-2.328;2023-02-17T07:34:17;0.77;;;0.30;;
24681;SDS011;12802;53.390;-2.328;2023-02-17T07:36:43;2.58;;;0.77;;
24681;SDS011;12802;53.390;-2.328;2023-02-17T07:39:09;2.45;;;0.45;;
24681;SDS011;12802;53.390;-2.328;2023-02-17T07:41:34;1.48;;;0.57;;
24681;SDS011;12802;53.390;-2.328;2023-02-17T07:44:06;2.80;;;0.65;;
24681;SDS011;12802;53.390;-2.328;2023-02-17T07:46:34;3.17;;;1.10;;
24681;SDS011;12802;53.390;-2.328;2023-02-17T07:49:00;1.58;;;1.08;;
24681;SDS011;12802;53.390;-2.328;2023-02-17T07:51:26;4.20;;;0.82;;
24681;SDS011;12802;53.390;-2.328;2023-02-17T07:53:51;4.80;;;1.17;;
24681;SDS011;12802;53.390;-2.328;2023-02-17T07:56:19;11.35;;;1.75;;
24681;SDS011;12802;53.390;-2.328;2023-02-17T07:58:47;3.25;;;1.27;;
24681;SDS011;12802;53.390;-2.328;2023-02-17T08:01:15;4.90;;;1.25;;
24681;SDS011;12802;53.390;-2.328;2023-02-17T08:03:45;5.85;;;1.38;;
24681;SDS011;12802;53.390;-2.328;2023-02-17T08:06:14;7.55;;;1.98;;
24681;SDS011;12802;53.390;-2.328;2023-02-17T08:08:47;6.45;;;1.45;;
24681;SDS011;12802;53.390;-2.328;2023-02-17T08:11:32;3.15;;;1.45;;
24681;SDS011;12802;53.390;-2.328;2023-02-17T08:14:18;2.95;;;1.10;;
24681;SDS011;12802;53.390;-2.328;2023-02-17T08:16:46;4.05;;;1.38;;
24681;SDS011;12802;53.390;-2.328;2023-02-17T08:19:12;8.02;;;1.45;;
24681;SDS011;12802;53.390;-2.328;2023-02-17T08:21:37;3.05;;;1.10;;
24681;SDS011;12802;53.390;-2.328;2023-02-17T08:24:03;3.90;;;0.93;;
24681;SDS011;12802;53.390;-2.328;2023-02-17T08:26:29;1.95;;;0.80;;
24681;SDS011;12802;53.390;-2.328;2023-02-17T08:28:55;5.90;;;1.13;;
24681;SDS011;12802;53.390;-2.328;2023-02-17T08:31:22;1.00;;;0.52;;
24681;SDS011;12802;53.390;-2.328;2023-02-17T08:33:50;4.38;;;0.80;;
24681;SDS011;12802;53.390;-2.328;2023-02-17T08:36:18;2.72;;;0.75;;
24681;SDS011;12802;53.390;-2.328;2023-02-17T08:38:46;1.58;;;0.43;;
24681;SDS011;12802;53.390;-2.328;2023-02-17T08:41:19;0.98;;;0.40;;
24681;SDS011;12802;53.390;-2.328;2023-02-17T08:43:46;2.70;;;0.68;;
24681;SDS011;12802;53.390;-2.328;2023-02-17T08:46:12;1.58;;;0.75;;
24681;SDS011;12802;53.390;-2.328;2023-02-17T08:48:39;2.00;;;0.82;;
24681;SDS011;12802;53.390;-2.328;2023-02-17T08:51:05;3.25;;;0.75;;
24681;SDS011;12802;53.390;-2.328;2023-02-17T08:53:31;3.45;;;0.80;;
24681;SDS011;12802;53.390;-2.328;2023-02-17T08:55:58;1.92;;;0.70;;
24681;SDS011;12802;53.390;-2.328;2023-02-17T08:58:24;2.88;;;0.85;;
24681;SDS011;12802;53.390;-2.328;2023-02-17T09:00:49;1.92;;;0.50;;
24681;SDS011;12802;53.390;-2.328;2023-02-17T09:03:15;13.45;;;0.90;;
24681;SDS011;12802;53.390;-2.328;2023-02-17T09:05:41;1.48;;;0.40;;
24681;SDS011;12802;53.390;-2.328;2023-02-17T09:08:07;5.60;;;0.75;;
24681;SDS011;12802;53.390;-2.328;2023-02-17T09:10:35;8.15;;;0.77;;
24681;SDS011;12802;53.390;-2.328;2023-02-17T09:13:01;2.58;;;0.77;;
24681;SDS011;12802;53.390;-2.328;2023-02-17T09:15:27;3.92;;;0.82;;
24681;SDS011;12802;53.390;-2.328;2023-02-17T09:17:54;2.45;;;0.70;;
24681;SDS011;12802;53.390;-2.328;2023-02-17T09:20:19;2.05;;;0.50;;
24681;SDS011;12802;53.390;-2.328;2023-02-17T09:22:45;4.75;;;0.88;;
24681;SDS011;12802;53.390;-2.328;2023-02-17T09:25:11;1.75;;;0.68;;
24681;SDS011;12802;53.390;-2.328;2023-02-17T09:27:37;3.40;;;0.82;;
24681;SDS011;12802;53.390;-2.328;2023-02-17T09:30:03;2.80;;;0.45;;
24681;SDS011;12802;53.390;-2.328;2023-02-17T09:32:29;1.25;;;0.60;;
24681;SDS011;12802;53.390;-2.328;2023-02-17T09:34:55;3.75;;;1.20;;
24681;SDS011;12802;53.390;-2.328;2023-02-17T09:37:22;3.50;;;1.08;;
24681;SDS011;12802;53.390;-2.328;2023-02-17T09:39:48;2.50;;;0.80;;
24681;SDS011;12802;53.390;-2.328;2023-02-17T09:44:53;1.17;;;0.50;;
24681;SDS011;12802;53.390;-2.328;2023-02-17T09:47:24;2.53;;;0.52;;
24681;SDS011;12802;53.390;-2.328;2023-02-17T09:50:15;5.93;;;1.33;;
24681;SDS011;12802;53.390;-2.328;2023-02-17T09:52:57;5.53;;;1.48;;
24681;SDS011;12802;53.390;-2.328;2023-02-17T09:55:32;5.55;;;1.58;;
24681;SDS011;12802;53.390;-2.328;2023-02-17T09:58:07;13.32;;;1.58;;
24681;SDS011;12802;53.390;-2.328;2023-02-17T10:00:39;1.67;;;0.70;;
24681;SDS011;12802;53.390;-2.328;2023-02-17T10:06:17;7.30;;;1.77;;
24681;SDS011;12802;53.390;-2.328;2023-02-17T10:13:52;11.50;;;1.88;;
24681;SDS011;12802;53.390;-2.328;2023-02-17T10:16:27;6.13;;;1.80;;
24681;SDS011;12802;53.390;-2.328;2023-02-17T10:18:58;6.97;;;1.77;;
24681;SDS011;12802;53.390;-2.328;2023-02-17T10:21:31;3.78;;;0.98;;
24681;SDS011;12802;53.390;-2.328;2023-02-17T10:24:02;4.60;;;1.48;;
24681;SDS011;12802;53.390;-2.328;2023-02-17T10:26:43;4.32;;;1.45;;
24681;SDS011;12802;53.390;-2.328;2023-02-17T10:32:15;2.17;;;1.10;;
24681;SDS011;12802;53.390;-2.328;2023-02-17T10:40:21;6.60;;;1.77;;
24681;SDS011;12802;53.390;-2.328;2023-02-17T10:42:54;6.97;;;1.13;;
24681;SDS011;12802;53.390;-2.328;2023-02-17T10:45:37;8.02;;;1.52;;
24681;SDS011;12802;53.390;-2.328;2023-02-17T10:48:23;1.60;;;0.95;;
24681;SDS011;12802;53.390;-2.328;2023-02-17T10:51:04;5.88;;;1.73;;
24681;SDS011;12802;53.390;-2.328;2023-02-17T10:53:33;11.43;;;1.95;;
24681;SDS011;12802;53.390;-2.328;2023-02-17T11:01:40;8.15;;;2.05;;
24681;SDS011;12802;53.390;-2.328;2023-02-17T11:04:06;7.57;;;1.55;;
24681;SDS011;12802;53.390;-2.328;2023-02-17T11:06:40;7.30;;;2.35;;
24681;SDS011;12802;53.390;-2.328;2023-02-17T11:09:21;7.88;;;2.45;;
24681;SDS011;12802;53.390;-2.328;2023-02-17T11:14:36;7.18;;;2.30;;
24681;SDS011;12802;53.390;-2.328;2023-02-17T11:19:59;9.40;;;1.95;;
24681;SDS011;12802;53.390;-2.328;2023-02-17T11:25:16;7.78;;;2.55;;
24681;SDS011;12802;53.390;-2.328;2023-02-17T11:30:17;8.75;;;2.40;;
24681;SDS011;12802;53.390;-2.328;2023-02-17T11:32:43;7.55;;;2.28;;
24681;SDS011;12802;53.390;-2.328;2023-02-17T11:35:44;4.60;;;2.40;;
24681;SDS011;12802;53.390;-2.328;2023-02-17T11:38:24;6.28;;;2.13;;
24681;SDS011;12802;53.390;-2.328;2023-02-17T11:43:21;8.57;;;1.80;;
24681;SDS011;12802;53.390;-2.328;2023-02-17T11:51:19;6.47;;;1.98;;
24681;SDS011;12802;53.390;-2.328;2023-02-17T11:59:35;5.53;;;1.70;;
24681;SDS011;12802;53.390;-2.328;2023-02-17T12:02:33;6.78;;;2.00;;
24681;SDS011;12802;53.390;-2.328;2023-02-17T12:10:42;7.00;;;1.73;;
24681;SDS011;12802;53.390;-2.328;2023-02-17T12:13:17;3.25;;;1.38;;
24681;SDS011;12802;53.390;-2.328;2023-02-17T12:26:42;8.18;;;2.53;;
24681;SDS011;12802;53.390;-2.328;2023-02-17T12:34:49;7.90;;;2.00;;
24681;SDS011;12802;53.390;-2.328;2023-02-17T12:37:21;6.03;;;1.67;;
24681;SDS011;12802;53.390;-2.328;2023-02-17T12:44:53;5.97;;;1.55;;
24681;SDS011;12802;53.390;-2.328;2023-02-17T12:47:30;4.60;;;1.50;;
24681;SDS011;12802;53.390;-2.328;2023-02-17T12:50:05;3.17;;;1.48;;
24681;SDS011;12802;53.390;-2.328;2023-02-17T12:52:47;6.75;;;2.25;;
24681;SDS011;12802;53.390;-2.328;2023-02-17T12:58:26;15.18;;;2.58;;
24681;SDS011;12802;53.390;-2.328;2023-02-17T13:00:55;8.25;;;1.95;;
24681;SDS011;12802;53.390;-2.328;2023-02-17T13:03:31;5.43;;;2.28;;
24681;SDS011;12802;53.390;-2.328;2023-02-17T13:08:51;7.63;;;2.05;;
24681;SDS011;12802;53.390;-2.328;2023-02-17T13:11:29;12.98;;;2.97;;
24681;SDS011;12802;53.390;-2.328;2023-02-17T13:14:19;4.80;;;1.77;;
24681;SDS011;12802;53.390;-2.328;2023-02-17T13:16:52;4.82;;;1.70;;
24681;SDS011;12802;53.390;-2.328;2023-02-17T13:19:28;3.75;;;1.15;;
24681;SDS011;12802;53.390;-2.328;2023-02-17T13:21:57;4.32;;;1.83;;
24681;SDS011;12802;53.390;-2.328;2023-02-17T13:29:44;5.22;;;1.75;;
24681;SDS011;12802;53.390;-2.328;2023-02-17T13:32:10;3.88;;;1.45;;
24681;SDS011;12802;53.390;-2.328;2023-02-17T13:34:38;7.32;;;2.10;;
24681;SDS011;12802;53.390;-2.328;2023-02-17T13:37:18;7.93;;;2.10;;
24681;SDS011;12802;53.390;-2.328;2023-02-17T13:39:58;4.35;;;1.75;;
24681;SDS011;12802;53.390;-2.328;2023-02-17T13:42:31;6.90;;;1.73;;
24681;SDS011;12802;53.390;-2.328;2023-02-17T13:45:01;4.38;;;1.40;;
24681;SDS011;12802;53.390;-2.328;2023-02-17T13:47:37;7.20;;;2.00;;
24681;SDS011;12802;53.390;-2.328;2023-02-17T13:50:05;8.30;;;1.73;;
24681;SDS011;12802;53.390;-2.328;2023-02-17T13:52:31;12.00;;;1.65;;
24681;SDS011;12802;53.390;-2.328;2023-02-17T13:57:30;8.25;;;1.85;;
24681;SDS011;12802;53.390;-2.328;2023-02-17T14:00:06;9.75;;;2.20;;
24681;SDS011;12802;53.390;-2.328;2023-02-17T14:02:58;5.30;;;1.88;;
24681;SDS011;12802;53.390;-2.328;2023-02-17T14:05:36;11.20;;;1.85;;
24681;SDS011;12802;53.390;-2.328;2023-02-17T14:08:17;9.75;;;1.65;;
24681;SDS011;12802;53.390;-2.328;2023-02-17T14:10:47;4.43;;;1.52;;
24681;SDS011;12802;53.390;-2.328;2023-02-17T14:13:13;6.57;;;1.63;;
24681;SDS011;12802;53.390;-2.328;2023-02-17T14:15:56;12.05;;;2.58;;
24681;SDS011;12802;53.390;-2.328;2023-02-17T14:21:01;8.05;;;2.10;;
24681;SDS011;12802;53.390;-2.328;2023-02-17T14:23:51;9.88;;;2.17;;
24681;SDS011;12802;53.390;-2.328;2023-02-17T14:29:05;5.32;;;1.75;;
24681;SDS011;12802;53.390;-2.328;2023-02-17T14:31:36;8.03;;;2.10;;
24681;SDS011;12802;53.390;-2.328;2023-02-17T14:34:04;14.95;;;2.58;;
24681;SDS011;12802;53.390;-2.328;2023-02-17T14:38:58;6.28;;;2.25;;
24681;SDS011;12802;53.390;-2.328;2023-02-17T14:41:25;5.70;;;1.88;;
24681;SDS011;12802;53.390;-2.328;2023-02-17T14:43:51;7.63;;;2.25;;
24681;SDS011;12802;53.390;-2.328;2023-02-17T14:46:17;6.82;;;2.03;;
24681;SDS011;12802;53.390;-2.328;2023-02-17T14:48:44;17.38;;;2.30;;
24681;SDS011;12802;53.390;-2.328;2023-02-17T14:51:12;9.77;;;2.20;;
24681;SDS011;12802;53.390;-2.328;2023-02-17T14:53:39;6.38;;;2.38;;
24681;SDS011;12802;53.390;-2.328;2023-02-17T14:58:51;11.60;;;2.95;;
24681;SDS011;12802;53.390;-2.328;2023-02-17T15:01:18;9.98;;;2.45;;
24681;SDS011;12802;53.390;-2.328;2023-02-17T15:03:45;10.35;;;2.05;;
24681;SDS011;12802;53.390;-2.328;2023-02-17T15:06:12;11.23;;;2.30;;
24681;SDS011;12802;53.390;-2.328;2023-02-17T15:08:46;13.10;;;2.67;;
24681;SDS011;12802;53.390;-2.328;2023-02-17T15:11:32;10.65;;;3.00;;
24681;SDS011;12802;53.390;-2.328;2023-02-17T15:13:59;6.63;;;1.92;;
24681;SDS011;12802;53.390;-2.328;2023-02-17T15:16:26;12.90;;;2.80;;
24681;SDS011;12802;53.390;-2.328;2023-02-17T15:18:52;9.00;;;3.13;;
24681;SDS011;12802;53.390;-2.328;2023-02-17T15:21:25;7.18;;;2.33;;
24681;SDS011;12802;53.390;-2.328;2023-02-17T15:23:56;10.75;;;2.63;;
24681;SDS011;12802;53.390;-2.328;2023-02-17T15:26:23;12.23;;;2.97;;
24681;SDS011;12802;53.390;-2.328;2023-02-17T15:28:49;10.98;;;2.47;;
24681;SDS011;12802;53.390;-2.328;2023-02-17T15:31:15;16.35;;;2.65;;
24681;SDS011;12802;53.390;-2.328;2023-02-17T15:33:44;9.15;;;3.40;;
24681;SDS011;12802;53.390;-2.328;2023-02-17T15:36:17;19.35;;;2.92;;
24681;SDS011;12802;53.390;-2.328;2023-02-17T15:38:43;16.58;;;3.83;;
24681;SDS011;12802;53.390;-2.328;2023-02-17T15:41:13;12.35;;;2.80;;
24681;SDS011;12802;53.390;-2.328;2023-02-17T15:43:49;18.15;;;2.83;;
24681;SDS011;12802;53.390;-2.328;2023-02-17T15:46:16;9.77;;;2.03;;
24681;SDS011;12802;53.390;-2.328;2023-02-17T15:48:44;5.28;;;1.58;;
24681;SDS011;12802;53.390;-2.328;2023-02-17T15:51:15;7.97;;;2.08;;
24681;SDS011;12802;53.390;-2.328;2023-02-17T15:53:43;15.20;;;2.03;;
24681;SDS011;12802;53.390;-2.328;2023-02-17T15:56:11;6.18;;;2.67;;
24681;SDS011;12802;53.390;-2.328;2023-02-17T15:58:40;4.38;;;1.88;;
24681;SDS011;12802;53.390;-2.328;2023-02-17T16:01:08;4.82;;;2.20;;
24681;SDS011;12802;53.390;-2.328;2023-02-17T16:03:40;12.50;;;1.52;;
24681;SDS011;12802;53.390;-2.328;2023-02-17T16:06:06;6.97;;;1.65;;
24681;SDS011;12802;53.390;-2.328;2023-02-17T16:08:32;12.55;;;2.15;;
24681;SDS011;12802;53.390;-2.328;2023-02-17T16:10:58;7.63;;;2.25;;
24681;SDS011;12802;53.390;-2.328;2023-02-17T16:13:23;5.10;;;1.45;;
24681;SDS011;12802;53.390;-2.328;2023-02-17T16:15:50;7.82;;;2.22;;
24681;SDS011;12802;53.390;-2.328;2023-02-17T16:18:19;4.32;;;1.85;;
24681;SDS011;12802;53.390;-2.328;2023-02-17T16:20:46;8.27;;;2.10;;
24681;SDS011;12802;53.390;-2.328;2023-02-17T16:23:12;9.65;;;2.10;;
24681;SDS011;12802;53.390;-2.328;2023-02-17T16:25:38;5.20;;;2.15;;
24681;SDS011;12802;53.390;-2.328;2023-02-17T16:28:09;7.20;;;1.83;;
24681;SDS011;12802;53.390;-2.328;2023-02-17T16:30:44;12.30;;;2.45;;
24681;SDS011;12802;53.390;-2.328;2023-02-17T16:33:10;12.45;;;1.95;;
24681;SDS011;12802;53.390;-2.328;2023-02-17T16:35:37;5.60;;;2.53;;
24681;SDS011;12802;53.390;-2.328;2023-02-17T16:38:04;10.45;;;2.33;;
24681;SDS011;12802;53.390;-2.328;2023-02-17T16:40:35;5.95;;;2.40;;
24681;SDS011;12802;53.390;-2.328;2023-02-17T16:43:11;4.22;;;2.13;;
24681;SDS011;12802;53.390;-2.328;2023-02-17T16:45:38;5.20;;;2.03;;
24681;SDS011;12802;53.390;-2.328;2023-02-17T16:50:44;12.98;;;3.13;;
24681;SDS011;12802;53.390;-2.328;2023-02-17T16:53:11;12.25;;;2.00;;
24681;SDS011;12802;53.390;-2.328;2023-02-17T16:55:38;7.00;;;2.40;;
24681;SDS011;12802;53.390;-2.328;2023-02-17T16:58:08;19.20;;;2.80;;
24681;SDS011;12802;53.390;-2.328;2023-02-17T17:00:40;8.95;;;2.17;;
24681;SDS011;12802;53.390;-2.328;2023-02-17T17:03:05;6.55;;;2.05;;
24681;SDS011;12802;53.390;-2.328;2023-02-17T17:05:31;7.57;;;2.33;;
24681;SDS011;12802;53.390;-2.328;2023-02-17T17:07:58;11.27;;;2.70;;